sensor_id;sensor_type;location;lat;lon;timestamp;temperature;humidity
23251;DHT22;11794;49.730;10.088;2023-07-20T00:00:52;18.20;99.90
23251;DHT22;11794;49.730;10.088;2023-07-20T00:03:19;18.20;99.90
23251;DHT22;11794;49.730;10.088;2023-07-20T00:05:49;18.10;99.90
23251;DHT22;11794;49.730;10.088;2023-07-20T00:08:15;18.10;99.90
23251;DHT22;11794;49.730;10.088;2023-07-20T00:10:41;18.00;99.90
23251;DHT22;11794;49.730;10.088;2023-07-20T00:13:07;18.00;99.90
23251;DHT22;11794;49.730;10.088;2023-07-20T00:15:32;18.10;99.90
23251;DHT22;11794;49.730;10.088;2023-07-20T00:17:58;18.10;99.90
23251;DHT22;11794;49.730;10.088;2023-07-20T00:20:24;18.10;99.90
23251;DHT22;11794;49.730;10.088;2023-07-20T00:22:50;18.20;99.90
23251;DHT22;11794;49.730;10.088;2023-07-20T00:25:20;18.20;99.90
23251;DHT22;11794;49.730;10.088;2023-07-20T00:27:46;18.20;99.90
23251;DHT22;11794;49.730;10.088;2023-07-20T00:30:12;18.20;99.90
23251;DHT22;11794;49.730;10.088;2023-07-20T00:32:37;18.20;99.90
23251;DHT22;11794;49.730;10.088;2023-07-20T00:35:03;18.10;99.90
23251;DHT22;11794;49.730;10.088;2023-07-20T00:37:29;18.10;99.90
23251;DHT22;11794;49.730;10.088;2023-07-20T00:39:55;18.00;99.90
23251;DHT22;11794;49.730;10.088;2023-07-20T00:42:20;18.10;99.90
23251;DHT22;11794;49.730;10.088;2023-07-20T00:44:46;18.10;99.90
23251;DHT22;11794;49.730;10.088;2023-07-20T00:47:11;18.00;99.90
23251;DHT22;11794;49.730;10.088;2023-07-20T00:49:37;18.00;99.90
23251;DHT22;11794;49.730;10.088;2023-07-20T00:52:03;18.00;99.90
23251;DHT22;11794;49.730;10.088;2023-07-20T00:54:31;18.00;99.90
23251;DHT22;11794;49.730;10.088;2023-07-20T00:56:58;18.00;99.90
23251;DHT22;11794;49.730;10.088;2023-07-20T00:59:26;17.90;99.90
23251;DHT22;11794;49.730;10.088;2023-07-20T01:01:51;17.90;99.90
23251;DHT22;11794;49.730;10.088;2023-07-20T01:04:17;18.00;99.90
23251;DHT22;11794;49.730;10.088;2023-07-20T01:06:51;18.00;99.90
23251;DHT22;11794;49.730;10.088;2023-07-20T01:09:38;18.00;99.90
23251;DHT22;11794;49.730;10.088;2023-07-20T01:12:12;18.00;99.90
23251;DHT22;11794;49.730;10.088;2023-07-20T01:14:39;17.90;99.90
23251;DHT22;11794;49.730;10.088;2023-07-20T01:17:04;17.90;99.90
23251;DHT22;11794;49.730;10.088;2023-07-20T01:19:30;17.80;99.90
23251;DHT22;11794;49.730;10.088;2023-07-20T01:33:32;17.80;99.90
23251;DHT22;11794;49.730;10.088;2023-07-20T01:35:59;17.80;99.90
23251;DHT22;11794;49.730;10.088;2023-07-20T01:38:25;17.80;99.90
23251;DHT22;11794;49.730;10.088;2023-07-20T01:40:52;17.70;99.90
23251;DHT22;11794;49.730;10.088;2023-07-20T01:43:18;17.70;99.90
23251;DHT22;11794;49.730;10.088;2023-07-20T01:45:44;17.70;99.90
23251;DHT22;11794;49.730;10.088;2023-07-20T01:48:09;17.80;99.90
23251;DHT22;11794;49.730;10.088;2023-07-20T01:50:35;17.80;99.90
23251;DHT22;11794;49.730;10.088;2023-07-20T01:53:01;17.80;99.90
23251;DHT22;11794;49.730;10.088;2023-07-20T01:55:27;17.80;99.90
23251;DHT22;11794;49.730;10.088;2023-07-20T01:57:53;17.70;99.90
23251;DHT22;11794;49.730;10.088;2023-07-20T02:00:18;17.70;99.90
23251;DHT22;11794;49.730;10.088;2023-07-20T02:02:46;17.70;99.90
23251;DHT22;11794;49.730;10.088;2023-07-20T02:05:12;17.70;99.90
23251;DHT22;11794;49.730;10.088;2023-07-20T02:07:38;17.70;99.90
23251;DHT22;11794;49.730;10.088;2023-07-20T02:10:04;17.70;99.90
23251;DHT22;11794;49.730;10.088;2023-07-20T02:12:29;17.70;99.90
23251;DHT22;11794;49.730;10.088;2023-07-20T02:14:55;17.60;99.90
23251;DHT22;11794;49.730;10.088;2023-07-20T02:17:20;17.60;99.90
23251;DHT22;11794;49.730;10.088;2023-07-20T02:19:46;17.50;99.90
23251;DHT22;11794;49.730;10.088;2023-07-20T02:22:14;17.50;99.90
23251;DHT22;11794;49.730;10.088;2023-07-20T02:24:40;17.50;99.90
23251;DHT22;11794;49.730;10.088;2023-07-20T02:27:06;17.50;99.90
23251;DHT22;11794;49.730;10.088;2023-07-20T02:29:32;17.50;99.90
23251;DHT22;11794;49.730;10.088;2023-07-20T02:31:57;17.40;99.90
23251;DHT22;11794;49.730;10.088;2023-07-20T02:34:23;17.40;99.90
23251;DHT22;11794;49.730;10.088;2023-07-20T02:36:49;17.30;99.90
23251;DHT22;11794;49.730;10.088;2023-07-20T02:39:14;17.20;99.90
23251;DHT22;11794;49.730;10.088;2023-07-20T02:41:40;17.10;99.90
23251;DHT22;11794;49.730;10.088;2023-07-20T02:44:06;17.00;99.90
23251;DHT22;11794;49.730;10.088;2023-07-20T02:46:32;17.00;99.90
23251;DHT22;11794;49.730;10.088;2023-07-20T02:48:58;16.90;99.90
23251;DHT22;11794;49.730;10.088;2023-07-20T02:51:23;16.90;99.90
23251;DHT22;11794;49.730;10.088;2023-07-20T02:53:49;16.90;99.90
23251;DHT22;11794;49.730;10.088;2023-07-20T02:56:14;16.80;99.90
23251;DHT22;11794;49.730;10.088;2023-07-20T02:58:42;16.80;99.90
23251;DHT22;11794;49.730;10.088;2023-07-20T03:01:11;16.80;99.90
23251;DHT22;11794;49.730;10.088;2023-07-20T03:03:37;16.70;99.90
23251;DHT22;11794;49.730;10.088;2023-07-20T03:06:04;16.70;99.90
23251;DHT22;11794;49.730;10.088;2023-07-20T03:08:29;16.60;99.90
23251;DHT22;11794;49.730;10.088;2023-07-20T03:10:55;16.60;99.90
23251;DHT22;11794;49.730;10.088;2023-07-20T03:13:20;16.50;99.90
23251;DHT22;11794;49.730;10.088;2023-07-20T03:15:46;16.40;99.90
23251;DHT22;11794;49.730;10.088;2023-07-20T03:18:11;16.30;99.90
23251;DHT22;11794;49.730;10.088;2023-07-20T03:20:38;16.30;99.90
23251;DHT22;11794;49.730;10.088;2023-07-20T03:23:04;16.20;99.90
23251;DHT22;11794;49.730;10.088;2023-07-20T03:25:29;16.10;99.90
23251;DHT22;11794;49.730;10.088;2023-07-20T03:27:55;16.10;99.90
23251;DHT22;11794;49.730;10.088;2023-07-20T03:30:20;16.10;99.90
23251;DHT22;11794;49.730;10.088;2023-07-20T03:32:46;16.00;99.90
23251;DHT22;11794;49.730;10.088;2023-07-20T03:35:11;15.90;99.90
23251;DHT22;11794;49.730;10.088;2023-07-20T03:37:37;15.90;99.90
23251;DHT22;11794;49.730;10.088;2023-07-20T03:40:03;15.90;99.90
23251;DHT22;11794;49.730;10.088;2023-07-20T03:42:30;15.80;99.90
23251;DHT22;11794;49.730;10.088;2023-07-20T03:44:55;15.80;99.90
23251;DHT22;11794;49.730;10.088;2023-07-20T03:47:21;15.80;99.90
23251;DHT22;11794;49.730;10.088;2023-07-20T03:49:47;15.80;99.90
23251;DHT22;11794;49.730;10.088;2023-07-20T03:52:13;15.80;99.90
23251;DHT22;11794;49.730;10.088;2023-07-20T03:54:38;15.70;99.90
23251;DHT22;11794;49.730;10.088;2023-07-20T03:57:04;15.70;99.90
23251;DHT22;11794;49.730;10.088;2023-07-20T03:59:29;15.80;99.90
23251;DHT22;11794;49.730;10.088;2023-07-20T04:01:55;15.80;99.90
23251;DHT22;11794;49.730;10.088;2023-07-20T04:04:20;15.80;99.90
23251;DHT22;11794;49.730;10.088;2023-07-20T04:06:46;15.90;99.90
23251;DHT22;11794;49.730;10.088;2023-07-20T04:09:12;15.90;99.90
23251;DHT22;11794;49.730;10.088;2023-07-20T04:11:38;15.90;99.90
23251;DHT22;11794;49.730;10.088;2023-07-20T04:14:04;15.90;99.90
23251;DHT22;11794;49.730;10.088;2023-07-20T04:16:30;15.80;99.90
23251;DHT22;11794;49.730;10.088;2023-07-20T04:18:56;15.80;99.90
23251;DHT22;11794;49.730;10.088;2023-07-20T04:21:22;15.80;99.90
23251;DHT22;11794;49.730;10.088;2023-07-20T04:23:48;15.80;99.90
23251;DHT22;11794;49.730;10.088;2023-07-20T04:26:13;15.80;99.90
23251;DHT22;11794;49.730;10.088;2023-07-20T04:28:40;15.80;99.90
23251;DHT22;11794;49.730;10.088;2023-07-20T04:31:15;15.80;99.90
23251;DHT22;11794;49.730;10.088;2023-07-20T04:33:41;15.90;99.90
23251;DHT22;11794;49.730;10.088;2023-07-20T04:36:06;15.90;99.90
23251;DHT22;11794;49.730;10.088;2023-07-20T04:38:32;16.00;99.90
23251;DHT22;11794;49.730;10.088;2023-07-20T04:40:58;16.00;99.90
23251;DHT22;11794;49.730;10.088;2023-07-20T04:43:23;16.10;99.90
23251;DHT22;11794;49.730;10.088;2023-07-20T04:45:49;16.20;99.90
23251;DHT22;11794;49.730;10.088;2023-07-20T04:48:16;16.20;99.90
23251;DHT22;11794;49.730;10.088;2023-07-20T04:50:44;16.20;99.90
23251;DHT22;11794;49.730;10.088;2023-07-20T04:53:10;16.20;99.90
23251;DHT22;11794;49.730;10.088;2023-07-20T04:55:37;16.20;99.90
23251;DHT22;11794;49.730;10.088;2023-07-20T04:58:03;16.20;99.90
23251;DHT22;11794;49.730;10.088;2023-07-20T05:00:29;16.30;99.90
23251;DHT22;11794;49.730;10.088;2023-07-20T05:02:55;16.30;99.90
23251;DHT22;11794;49.730;10.088;2023-07-20T05:05:20;16.30;99.90
23251;DHT22;11794;49.730;10.088;2023-07-20T05:07:46;16.40;99.90
23251;DHT22;11794;49.730;10.088;2023-07-20T05:10:12;16.30;99.90
23251;DHT22;11794;49.730;10.088;2023-07-20T05:12:37;16.40;99.90
23251;DHT22;11794;49.730;10.088;2023-07-20T05:15:03;16.40;99.90
23251;DHT22;11794;49.730;10.088;2023-07-20T05:17:29;16.50;99.90
23251;DHT22;11794;49.730;10.088;2023-07-20T05:19:55;16.50;99.90
23251;DHT22;11794;49.730;10.088;2023-07-20T05:22:20;16.60;99.90
23251;DHT22;11794;49.730;10.088;2023-07-20T05:24:46;16.60;99.90
23251;DHT22;11794;49.730;10.088;2023-07-20T05:27:12;16.60;99.90
23251;DHT22;11794;49.730;10.088;2023-07-20T05:29:37;16.70;99.90
23251;DHT22;11794;49.730;10.088;2023-07-20T05:32:03;16.80;99.90
23251;DHT22;11794;49.730;10.088;2023-07-20T05:34:29;16.70;99.90
23251;DHT22;11794;49.730;10.088;2023-07-20T05:36:55;16.70;99.90
23251;DHT22;11794;49.730;10.088;2023-07-20T05:39:20;16.80;99.90
23251;DHT22;11794;49.730;10.088;2023-07-20T05:41:46;16.80;99.90
23251;DHT22;11794;49.730;10.088;2023-07-20T05:44:12;16.80;99.90
23251;DHT22;11794;49.730;10.088;2023-07-20T05:46:37;16.80;99.90
23251;DHT22;11794;49.730;10.088;2023-07-20T05:49:03;16.90;99.90
23251;DHT22;11794;49.730;10.088;2023-07-20T05:51:28;16.90;99.90
23251;DHT22;11794;49.730;10.088;2023-07-20T05:53:54;16.90;99.90
23251;DHT22;11794;49.730;10.088;2023-07-20T05:56:19;17.00;99.90
23251;DHT22;11794;49.730;10.088;2023-07-20T05:58:45;17.10;99.90
23251;DHT22;11794;49.730;10.088;2023-07-20T06:01:11;17.20;99.90
23251;DHT22;11794;49.730;10.088;2023-07-20T06:03:36;17.30;99.90
23251;DHT22;11794;49.730;10.088;2023-07-20T06:06:03;17.40;99.90
23251;DHT22;11794;49.730;10.088;2023-07-20T06:08:30;17.40;99.90
23251;DHT22;11794;49.730;10.088;2023-07-20T06:10:56;17.50;99.90
23251;DHT22;11794;49.730;10.088;2023-07-20T06:13:22;17.50;99.90
23251;DHT22;11794;49.730;10.088;2023-07-20T06:15:48;17.60;99.90
23251;DHT22;11794;49.730;10.088;2023-07-20T06:18:13;17.60;99.90
23251;DHT22;11794;49.730;10.088;2023-07-20T06:20:39;17.60;99.90
23251;DHT22;11794;49.730;10.088;2023-07-20T06:23:05;17.80;99.90
23251;DHT22;11794;49.730;10.088;2023-07-20T06:25:30;17.80;99.90
23251;DHT22;11794;49.730;10.088;2023-07-20T06:27:56;18.10;99.90
23251;DHT22;11794;49.730;10.088;2023-07-20T06:30:22;18.20;99.90
23251;DHT22;11794;49.730;10.088;2023-07-20T06:32:48;18.10;99.90
23251;DHT22;11794;49.730;10.088;2023-07-20T06:35:15;18.20;99.90
23251;DHT22;11794;49.730;10.088;2023-07-20T06:37:41;18.30;99.90
23251;DHT22;11794;49.730;10.088;2023-07-20T06:40:07;18.50;99.90
23251;DHT22;11794;49.730;10.088;2023-07-20T06:42:34;18.50;99.90
23251;DHT22;11794;49.730;10.088;2023-07-20T06:45:00;18.60;99.90
23251;DHT22;11794;49.730;10.088;2023-07-20T06:47:25;18.70;99.90
23251;DHT22;11794;49.730;10.088;2023-07-20T06:49:51;18.80;99.90
23251;DHT22;11794;49.730;10.088;2023-07-20T06:52:17;18.90;99.90
23251;DHT22;11794;49.730;10.088;2023-07-20T06:54:42;18.80;99.90
23251;DHT22;11794;49.730;10.088;2023-07-20T06:57:08;18.90;99.90
23251;DHT22;11794;49.730;10.088;2023-07-20T06:59:33;18.90;99.90
23251;DHT22;11794;49.730;10.088;2023-07-20T07:01:59;19.10;99.90
23251;DHT22;11794;49.730;10.088;2023-07-20T07:04:25;19.20;99.90
23251;DHT22;11794;49.730;10.088;2023-07-20T07:06:50;19.00;99.90
23251;DHT22;11794;49.730;10.088;2023-07-20T07:09:16;19.10;99.90
23251;DHT22;11794;49.730;10.088;2023-07-20T07:11:41;19.20;99.90
23251;DHT22;11794;49.730;10.088;2023-07-20T07:14:07;19.10;99.90
23251;DHT22;11794;49.730;10.088;2023-07-20T07:16:32;19.30;99.90
23251;DHT22;11794;49.730;10.088;2023-07-20T07:18:58;19.50;99.90
23251;DHT22;11794;49.730;10.088;2023-07-20T07:21:24;19.70;99.90
23251;DHT22;11794;49.730;10.088;2023-07-20T07:23:51;19.80;99.90
23251;DHT22;11794;49.730;10.088;2023-07-20T07:26:18;19.90;99.90
23251;DHT22;11794;49.730;10.088;2023-07-20T07:28:44;19.90;99.90
23251;DHT22;11794;49.730;10.088;2023-07-20T07:31:10;20.00;99.90
23251;DHT22;11794;49.730;10.088;2023-07-20T07:33:35;20.30;99.90
23251;DHT22;11794;49.730;10.088;2023-07-20T07:36:01;20.40;99.90
23251;DHT22;11794;49.730;10.088;2023-07-20T07:38:26;20.50;99.90
23251;DHT22;11794;49.730;10.088;2023-07-20T07:40:52;20.80;99.90
23251;DHT22;11794;49.730;10.088;2023-07-20T07:43:18;21.00;99.90
23251;DHT22;11794;49.730;10.088;2023-07-20T07:45:43;21.00;99.90
23251;DHT22;11794;49.730;10.088;2023-07-20T07:48:09;21.10;99.90
23251;DHT22;11794;49.730;10.088;2023-07-20T07:50:38;21.10;99.90
23251;DHT22;11794;49.730;10.088;2023-07-20T07:53:05;21.00;99.90
23251;DHT22;11794;49.730;10.088;2023-07-20T07:55:31;21.40;99.90
23251;DHT22;11794;49.730;10.088;2023-07-20T07:57:56;22.00;99.90
23251;DHT22;11794;49.730;10.088;2023-07-20T08:00:22;22.50;99.90
23251;DHT22;11794;49.730;10.088;2023-07-20T08:02:50;22.90;99.90
23251;DHT22;11794;49.730;10.088;2023-07-20T08:05:16;23.00;99.90
23251;DHT22;11794;49.730;10.088;2023-07-20T08:07:42;23.40;99.90
23251;DHT22;11794;49.730;10.088;2023-07-20T08:10:08;24.10;99.90
23251;DHT22;11794;49.730;10.088;2023-07-20T08:12:34;24.30;99.90
23251;DHT22;11794;49.730;10.088;2023-07-20T08:14:59;25.00;99.90
23251;DHT22;11794;49.730;10.088;2023-07-20T08:17:25;25.00;99.90
23251;DHT22;11794;49.730;10.088;2023-07-20T08:19:51;24.70;99.90
23251;DHT22;11794;49.730;10.088;2023-07-20T08:22:16;24.20;99.90
23251;DHT22;11794;49.730;10.088;2023-07-20T08:24:42;23.60;99.90
23251;DHT22;11794;49.730;10.088;2023-07-20T08:27:08;24.10;99.90
23251;DHT22;11794;49.730;10.088;2023-07-20T08:29:35;24.30;99.90
23251;DHT22;11794;49.730;10.088;2023-07-20T08:32:01;24.00;99.90
23251;DHT22;11794;49.730;10.088;2023-07-20T08:34:26;24.80;99.90
23251;DHT22;11794;49.730;10.088;2023-07-20T08:36:52;26.00;99.90
23251;DHT22;11794;49.730;10.088;2023-07-20T08:39:17;26.00;99.90
23251;DHT22;11794;49.730;10.088;2023-07-20T08:41:43;25.60;99.90
23251;DHT22;11794;49.730;10.088;2023-07-20T08:44:10;25.20;99.90
23251;DHT22;11794;49.730;10.088;2023-07-20T08:46:38;24.60;99.90
23251;DHT22;11794;49.730;10.088;2023-07-20T08:49:04;23.90;99.90
23251;DHT22;11794;49.730;10.088;2023-07-20T08:51:30;23.10;99.90
23251;DHT22;11794;49.730;10.088;2023-07-20T08:53:56;22.60;99.90
23251;DHT22;11794;49.730;10.088;2023-07-20T08:56:25;23.30;99.90
23251;DHT22;11794;49.730;10.088;2023-07-20T08:58:52;24.80;99.90
23251;DHT22;11794;49.730;10.088;2023-07-20T09:01:19;25.90;99.90
23251;DHT22;11794;49.730;10.088;2023-07-20T09:03:45;26.10;99.90
23251;DHT22;11794;49.730;10.088;2023-07-20T09:06:12;26.00;99.90
23251;DHT22;11794;49.730;10.088;2023-07-20T09:08:39;25.50;99.90
23251;DHT22;11794;49.730;10.088;2023-07-20T09:11:04;25.00;99.90
23251;DHT22;11794;49.730;10.088;2023-07-20T09:13:32;24.40;99.90
23251;DHT22;11794;49.730;10.088;2023-07-20T09:15:58;24.10;99.90
23251;DHT22;11794;49.730;10.088;2023-07-20T09:18:28;24.90;99.90
23251;DHT22;11794;49.730;10.088;2023-07-20T09:20:58;26.10;99.90
23251;DHT22;11794;49.730;10.088;2023-07-20T09:23:34;27.20;99.90
23251;DHT22;11794;49.730;10.088;2023-07-20T09:26:08;28.00;98.30
23251;DHT22;11794;49.730;10.088;2023-07-20T09:28:42;28.60;98.30
23251;DHT22;11794;49.730;10.088;2023-07-20T09:31:16;29.50;95.10
23251;DHT22;11794;49.730;10.088;2023-07-20T09:33:42;29.70;95.40
23251;DHT22;11794;49.730;10.088;2023-07-20T09:36:09;29.60;92.90
23251;DHT22;11794;49.730;10.088;2023-07-20T09:38:37;29.00;94.50
23251;DHT22;11794;49.730;10.088;2023-07-20T09:41:04;28.50;95.50
23251;DHT22;11794;49.730;10.088;2023-07-20T09:43:30;28.60;96.20
23251;DHT22;11794;49.730;10.088;2023-07-20T09:45:58;28.30;96.00
23251;DHT22;11794;49.730;10.088;2023-07-20T09:48:24;28.40;96.00
23251;DHT22;11794;49.730;10.088;2023-07-20T09:50:51;28.90;96.70
23251;DHT22;11794;49.730;10.088;2023-07-20T09:53:18;29.60;94.90
23251;DHT22;11794;49.730;10.088;2023-07-20T09:55:47;30.30;93.90
23251;DHT22;11794;49.730;10.088;2023-07-20T09:58:14;30.90;93.00
23251;DHT22;11794;49.730;10.088;2023-07-20T10:00:41;30.70;92.30
23251;DHT22;11794;49.730;10.088;2023-07-20T10:03:18;30.00;91.70
23251;DHT22;11794;49.730;10.088;2023-07-20T10:05:54;28.80;92.40
23251;DHT22;11794;49.730;10.088;2023-07-20T10:08:24;27.70;93.40
23251;DHT22;11794;49.730;10.088;2023-07-20T10:10:50;27.50;94.20
23251;DHT22;11794;49.730;10.088;2023-07-20T10:13:24;27.10;94.30
23251;DHT22;11794;49.730;10.088;2023-07-20T10:15:54;27.10;95.30
23251;DHT22;11794;49.730;10.088;2023-07-20T10:18:45;27.50;94.00
23251;DHT22;11794;49.730;10.088;2023-07-20T10:21:15;28.10;93.70
23251;DHT22;11794;49.730;10.088;2023-07-20T10:23:42;28.90;93.50
23251;DHT22;11794;49.730;10.088;2023-07-20T10:26:08;29.90;92.30
23251;DHT22;11794;49.730;10.088;2023-07-20T10:28:34;30.80;90.90
23251;DHT22;11794;49.730;10.088;2023-07-20T10:31:00;31.40;89.50
23251;DHT22;11794;49.730;10.088;2023-07-20T10:33:26;30.80;89.80
23251;DHT22;11794;49.730;10.088;2023-07-20T10:35:57;31.30;88.90
23251;DHT22;11794;49.730;10.088;2023-07-20T10:38:58;31.80;87.90
23251;DHT22;11794;49.730;10.088;2023-07-20T10:41:28;31.40;78.90
23251;DHT22;11794;49.730;10.088;2023-07-20T10:44:04;31.30;84.50
23251;DHT22;11794;49.730;10.088;2023-07-20T10:46:34;31.00;85.30
23251;DHT22;11794;49.730;10.088;2023-07-20T10:49:08;31.10;83.40
23251;DHT22;11794;49.730;10.088;2023-07-20T10:51:48;30.40;80.10
23251;DHT22;11794;49.730;10.088;2023-07-20T10:56:44;31.20;82.40
23251;DHT22;11794;49.730;10.088;2023-07-20T11:01:54;32.60;75.50
23251;DHT22;11794;49.730;10.088;2023-07-20T11:04:38;31.80;77.00
23251;DHT22;11794;49.730;10.088;2023-07-20T11:07:04;30.40;83.50
23251;DHT22;11794;49.730;10.088;2023-07-20T11:09:34;29.80;84.70
23251;DHT22;11794;49.730;10.088;2023-07-20T11:12:29;29.10;84.30
23251;DHT22;11794;49.730;10.088;2023-07-20T11:14:56;28.20;85.60
23251;DHT22;11794;49.730;10.088;2023-07-20T11:17:29;28.00;90.30
23251;DHT22;11794;49.730;10.088;2023-07-20T11:19:56;29.00;87.90
23251;DHT22;11794;49.730;10.088;2023-07-20T11:22:22;28.90;78.90
23251;DHT22;11794;49.730;10.088;2023-07-20T11:24:47;29.20;82.00
23251;DHT22;11794;49.730;10.088;2023-07-20T11:27:14;29.90;77.90
23251;DHT22;11794;49.730;10.088;2023-07-20T11:29:40;29.80;81.30
23251;DHT22;11794;49.730;10.088;2023-07-20T11:32:06;30.20;81.20
23251;DHT22;11794;49.730;10.088;2023-07-20T11:34:33;30.70;78.80
23251;DHT22;11794;49.730;10.088;2023-07-20T11:36:59;30.40;77.50
23251;DHT22;11794;49.730;10.088;2023-07-20T11:39:25;30.40;78.70
23251;DHT22;11794;49.730;10.088;2023-07-20T11:41:55;31.00;78.40
23251;DHT22;11794;49.730;10.088;2023-07-20T11:44:22;32.10;79.00
23251;DHT22;11794;49.730;10.088;2023-07-20T11:47:05;32.60;75.60
23251;DHT22;11794;49.730;10.088;2023-07-20T11:49:35;32.50;72.60
23251;DHT22;11794;49.730;10.088;2023-07-20T11:52:01;30.80;72.20
23251;DHT22;11794;49.730;10.088;2023-07-20T11:54:27;30.20;75.80
23251;DHT22;11794;49.730;10.088;2023-07-20T11:56:56;30.00;75.30
23251;DHT22;11794;49.730;10.088;2023-07-20T11:59:21;31.20;76.20
23251;DHT22;11794;49.730;10.088;2023-07-20T12:01:47;31.60;73.70
23251;DHT22;11794;49.730;10.088;2023-07-20T12:04:13;32.00;73.10
23251;DHT22;11794;49.730;10.088;2023-07-20T12:06:38;32.80;72.30
23251;DHT22;11794;49.730;10.088;2023-07-20T12:09:04;33.50;71.30
23251;DHT22;11794;49.730;10.088;2023-07-20T12:11:37;33.20;66.20
23251;DHT22;11794;49.730;10.088;2023-07-20T12:14:04;33.20;68.20
23251;DHT22;11794;49.730;10.088;2023-07-20T12:16:30;32.70;67.20
23251;DHT22;11794;49.730;10.088;2023-07-20T12:19:06;32.50;68.60
23251;DHT22;11794;49.730;10.088;2023-07-20T12:21:34;32.10;69.10
23251;DHT22;11794;49.730;10.088;2023-07-20T12:24:02;30.90;68.60
23251;DHT22;11794;49.730;10.088;2023-07-20T12:26:29;30.10;70.50
23251;DHT22;11794;49.730;10.088;2023-07-20T12:28:55;29.70;73.60
23251;DHT22;11794;49.730;10.088;2023-07-20T12:31:21;29.50;73.20
23251;DHT22;11794;49.730;10.088;2023-07-20T12:33:48;29.70;71.60
23251;DHT22;11794;49.730;10.088;2023-07-20T12:36:14;29.50;72.50
23251;DHT22;11794;49.730;10.088;2023-07-20T12:38:40;29.70;71.70
23251;DHT22;11794;49.730;10.088;2023-07-20T12:41:07;29.90;72.20
23251;DHT22;11794;49.730;10.088;2023-07-20T12:43:33;30.30;69.30
23251;DHT22;11794;49.730;10.088;2023-07-20T12:45:59;31.00;72.90
23251;DHT22;11794;49.730;10.088;2023-07-20T12:48:25;31.90;65.70
23251;DHT22;11794;49.730;10.088;2023-07-20T12:50:50;31.80;67.60
23251;DHT22;11794;49.730;10.088;2023-07-20T12:53:16;31.70;68.20
23251;DHT22;11794;49.730;10.088;2023-07-20T12:55:42;32.50;68.10
23251;DHT22;11794;49.730;10.088;2023-07-20T12:58:08;33.00;67.70
23251;DHT22;11794;49.730;10.088;2023-07-20T13:00:33;33.50;65.40
23251;DHT22;11794;49.730;10.088;2023-07-20T13:02:59;33.30;66.20
23251;DHT22;11794;49.730;10.088;2023-07-20T13:05:25;32.30;67.00
23251;DHT22;11794;49.730;10.088;2023-07-20T13:07:51;31.30;67.90
23251;DHT22;11794;49.730;10.088;2023-07-20T13:10:17;30.60;70.10
23251;DHT22;11794;49.730;10.088;2023-07-20T13:12:44;30.80;72.50
23251;DHT22;11794;49.730;10.088;2023-07-20T13:15:10;31.90;69.60
23251;DHT22;11794;49.730;10.088;2023-07-20T13:17:37;33.30;65.90
23251;DHT22;11794;49.730;10.088;2023-07-20T13:20:04;33.40;66.00
23251;DHT22;11794;49.730;10.088;2023-07-20T13:22:33;33.40;64.90
23251;DHT22;11794;49.730;10.088;2023-07-20T13:24:59;33.60;65.80
23251;DHT22;11794;49.730;10.088;2023-07-20T13:27:25;34.10;65.00
23251;DHT22;11794;49.730;10.088;2023-07-20T13:29:53;34.80;62.60
23251;DHT22;11794;49.730;10.088;2023-07-20T13:32:19;34.40;63.20
23251;DHT22;11794;49.730;10.088;2023-07-20T13:34:45;33.30;63.70
23251;DHT22;11794;49.730;10.088;2023-07-20T13:37:11;32.70;66.20
23251;DHT22;11794;49.730;10.088;2023-07-20T13:39:37;32.10;66.30
23251;DHT22;11794;49.730;10.088;2023-07-20T13:42:04;31.70;66.00
23251;DHT22;11794;49.730;10.088;2023-07-20T13:44:33;30.70;67.50
23251;DHT22;11794;49.730;10.088;2023-07-20T13:47:00;30.00;68.80
23251;DHT22;11794;49.730;10.088;2023-07-20T13:49:26;30.40;70.70
23251;DHT22;11794;49.730;10.088;2023-07-20T13:51:52;31.00;67.80
23251;DHT22;11794;49.730;10.088;2023-07-20T13:54:17;31.70;67.90
23251;DHT22;11794;49.730;10.088;2023-07-20T13:56:43;33.10;65.10
23251;DHT22;11794;49.730;10.088;2023-07-20T13:59:08;33.90;62.50
23251;DHT22;11794;49.730;10.088;2023-07-20T14:01:34;32.80;65.40
23251;DHT22;11794;49.730;10.088;2023-07-20T14:04:01;31.70;66.00
23251;DHT22;11794;49.730;10.088;2023-07-20T14:06:29;31.40;66.10
23251;DHT22;11794;49.730;10.088;2023-07-20T14:08:55;31.30;66.70
23251;DHT22;11794;49.730;10.088;2023-07-20T14:11:21;30.60;68.00
23251;DHT22;11794;49.730;10.088;2023-07-20T14:13:46;30.00;71.30
23251;DHT22;11794;49.730;10.088;2023-07-20T14:16:12;29.50;70.60
23251;DHT22;11794;49.730;10.088;2023-07-20T14:18:37;29.30;73.40
23251;DHT22;11794;49.730;10.088;2023-07-20T14:21:03;29.20;70.00
23251;DHT22;11794;49.730;10.088;2023-07-20T14:23:30;29.10;71.70
23251;DHT22;11794;49.730;10.088;2023-07-20T14:25:56;29.00;72.20
23251;DHT22;11794;49.730;10.088;2023-07-20T14:28:21;29.10;71.70
23251;DHT22;11794;49.730;10.088;2023-07-20T14:30:47;29.20;72.50
23251;DHT22;11794;49.730;10.088;2023-07-20T14:33:12;29.40;73.20
23251;DHT22;11794;49.730;10.088;2023-07-20T14:35:38;29.30;72.10
23251;DHT22;11794;49.730;10.088;2023-07-20T14:38:03;29.20;73.40
23251;DHT22;11794;49.730;10.088;2023-07-20T14:40:29;29.20;73.00
23251;DHT22;11794;49.730;10.088;2023-07-20T14:42:55;29.10;71.80
23251;DHT22;11794;49.730;10.088;2023-07-20T14:45:21;29.10;73.00
23251;DHT22;11794;49.730;10.088;2023-07-20T14:47:47;29.10;73.00
23251;DHT22;11794;49.730;10.088;2023-07-20T14:50:19;29.20;71.60
23251;DHT22;11794;49.730;10.088;2023-07-20T14:52:44;29.20;73.30
23251;DHT22;11794;49.730;10.088;2023-07-20T14:55:10;29.20;71.20
23251;DHT22;11794;49.730;10.088;2023-07-20T14:57:36;29.20;71.40
23251;DHT22;11794;49.730;10.088;2023-07-20T15:00:03;29.10;70.80
23251;DHT22;11794;49.730;10.088;2023-07-20T15:02:32;29.10;72.50
23251;DHT22;11794;49.730;10.088;2023-07-20T15:04:58;29.20;67.50
23251;DHT22;11794;49.730;10.088;2023-07-20T15:07:23;29.20;70.00
23251;DHT22;11794;49.730;10.088;2023-07-20T15:09:49;29.00;69.80
23251;DHT22;11794;49.730;10.088;2023-07-20T15:12:15;28.80;69.80
23251;DHT22;11794;49.730;10.088;2023-07-20T15:14:41;28.70;70.10
23251;DHT22;11794;49.730;10.088;2023-07-20T15:17:08;28.50;69.40
23251;DHT22;11794;49.730;10.088;2023-07-20T15:19:34;27.90;70.80
23251;DHT22;11794;49.730;10.088;2023-07-20T15:22:04;27.80;69.10
23251;DHT22;11794;49.730;10.088;2023-07-20T15:24:30;27.60;70.30
23251;DHT22;11794;49.730;10.088;2023-07-20T15:26:55;27.60;71.70
23251;DHT22;11794;49.730;10.088;2023-07-20T15:29:22;27.60;70.90